EFW8RA LIPX-EGKK
Flight info
| Callsign | EFW8RA |
|---|---|
| Flight time | 1h 40m |
| Altitude | 36000 |
| Route | OTZOM7A OTZOM Y480 UPXUF L612 ADOSA DCT BORMI DCT RESIA DCT ELMUR DCT RIPUS DCT DITON DCT HOC DCT LUL DCT RLP DCT ROTSI DCT KOTUN DCT NINAL DCT KESAX DCT KUNAV KUNAV1G |
| Aircraft | A321/M-SDE3FGIJ1KRWXY/SB1 |
Departure
| Time | 2026-05-04 19:26 |
|---|---|
| Airport | Verona Villafranca Valerio Catullo Airport (LIPX) |
Arrival
| Time | 2026-05-04 21:06 |
|---|---|
| Airport | London Gatwick Airport (EGKK) |
| Time | Latitude | Longitude | Altitude | Speed | Heading |
|---|---|---|---|---|---|
| 2026-05-04 18:53 | 45.40469 | 10.90628 | 237 ft | 0 kts | 134° |
| 2026-05-04 19:17 | 45.40468 | 10.90629 | 237 ft | 0 kts | 134° |
| 2026-05-04 19:17 | 45.40458 | 10.90644 | 237 ft | 4 kts | 136° |
| 2026-05-04 19:17 | 45.40417 | 10.90646 | 237 ft | 8 kts | 208° |
| 2026-05-04 19:18 | 45.40368 | 10.90579 | 237 ft | 11 kts | 225° |
| 2026-05-04 19:18 | 45.40310 | 10.90497 | 237 ft | 12 kts | 225° |
| 2026-05-04 19:18 | 45.40260 | 10.90413 | 237 ft | 11 kts | 249° |
| 2026-05-04 19:18 | 45.40293 | 10.90331 | 237 ft | 10 kts | 317° |
| 2026-05-04 19:19 | 45.40330 | 10.90270 | 237 ft | 8 kts | 290° |
| 2026-05-04 19:19 | 45.40326 | 10.90201 | 237 ft | 8 kts | 258° |
| 2026-05-04 19:19 | 45.40315 | 10.90141 | 237 ft | 2 kts | 255° |
| 2026-05-04 19:19 | 45.40310 | 10.90114 | 237 ft | 4 kts | 255° |
| 2026-05-04 19:20 | 45.40299 | 10.90056 | 237 ft | 9 kts | 256° |
| 2026-05-04 19:20 | 45.40279 | 10.89935 | 238 ft | 16 kts | 255° |
| 2026-05-04 19:20 | 45.40218 | 10.89790 | 239 ft | 18 kts | 228° |
| 2026-05-04 19:20 | 45.40129 | 10.89665 | 240 ft | 19 kts | 226° |
| 2026-05-04 19:21 | 45.40033 | 10.89527 | 238 ft | 21 kts | 224° |
| 2026-05-04 19:21 | 45.39930 | 10.89377 | 237 ft | 22 kts | 226° |
| 2026-05-04 19:21 | 45.39817 | 10.89215 | 237 ft | 23 kts | 225° |
| 2026-05-04 19:21 | 45.39702 | 10.89047 | 238 ft | 24 kts | 224° |
| 2026-05-04 19:22 | 45.39582 | 10.88873 | 239 ft | 25 kts | 226° |
| 2026-05-04 19:22 | 45.39461 | 10.88695 | 240 ft | 26 kts | 226° |
| 2026-05-04 19:22 | 45.39330 | 10.88505 | 238 ft | 27 kts | 225° |
| 2026-05-04 19:22 | 45.39304 | 10.88467 | 238 ft | 24 kts | 225° |
| 2026-05-04 19:23 | 45.39219 | 10.88344 | 237 ft | 25 kts | 226° |
| 2026-05-04 19:24 | 45.39096 | 10.88169 | 238 ft | 25 kts | 224° |
| 2026-05-04 19:24 | 45.38974 | 10.87987 | 240 ft | 25 kts | 226° |
| 2026-05-04 19:24 | 45.38869 | 10.87845 | 240 ft | 18 kts | 209° |
| 2026-05-04 19:24 | 45.38803 | 10.87815 | 239 ft | 13 kts | 195° |
| 2026-05-04 19:25 | 45.38755 | 10.87770 | 239 ft | 8 kts | 250° |
| 2026-05-04 19:25 | 45.38768 | 10.87723 | 240 ft | 4 kts | 317° |
| 2026-05-04 19:25 | 45.38791 | 10.87727 | 240 ft | 4 kts | 26° |
| 2026-05-04 19:25 | 45.38818 | 10.87760 | 240 ft | 7 kts | 45° |
| 2026-05-04 19:26 | 45.38921 | 10.87914 | 240 ft | 53 kts | 45° |
| 2026-05-04 19:26 | 45.39372 | 10.88551 | 238 ft | 127 kts | 45° |
| 2026-05-04 19:26 | 45.40111 | 10.89640 | 401 ft | 165 kts | 44° |
| 2026-05-04 19:26 | 45.40855 | 10.90835 | 1158 ft | 163 kts | 54° |
| 2026-05-04 19:27 | 45.41245 | 10.92390 | 1729 ft | 175 kts | 84° |
| 2026-05-04 19:27 | 45.41087 | 10.94162 | 2188 ft | 187 kts | 103° |
| 2026-05-04 19:27 | 45.40771 | 10.95988 | 2723 ft | 193 kts | 104° |
| 2026-05-04 19:27 | 45.40441 | 10.97859 | 3218 ft | 200 kts | 105° |
| 2026-05-04 19:28 | 45.39855 | 10.99693 | 3623 ft | 209 kts | 128° |
| 2026-05-04 19:28 | 45.38796 | 11.01149 | 4122 ft | 215 kts | 140° |
| 2026-05-04 19:28 | 45.37640 | 11.02576 | 4547 ft | 227 kts | 139° |
| 2026-05-04 19:28 | 45.36464 | 11.04250 | 4835 ft | 252 kts | 130° |
| 2026-05-04 19:29 | 45.35493 | 11.06414 | 5369 ft | 266 kts | 118° |
| 2026-05-04 19:29 | 45.34671 | 11.08800 | 6137 ft | 270 kts | 118° |
| 2026-05-04 19:29 | 45.33825 | 11.11203 | 6929 ft | 273 kts | 118° |
| 2026-05-04 19:29 | 45.32963 | 11.13618 | 7683 ft | 276 kts | 119° |
| 2026-05-04 19:30 | 45.32083 | 11.16062 | 8434 ft | 279 kts | 119° |
| 2026-05-04 19:30 | 45.31498 | 11.18709 | 9165 ft | 288 kts | 97° |
| 2026-05-04 19:30 | 45.31768 | 11.21567 | 9891 ft | 298 kts | 72° |
| 2026-05-04 19:30 | 45.32840 | 11.24125 | 10487 ft | 311 kts | 50° |
| 2026-05-04 19:31 | 45.34657 | 11.25978 | 10664 ft | 336 kts | 21° |
| 2026-05-04 19:31 | 45.37031 | 11.26479 | 10833 ft | 356 kts | 352° |
| 2026-05-04 19:31 | 45.39368 | 11.25329 | 11283 ft | 360 kts | 326° |
| 2026-05-04 19:31 | 45.41395 | 11.23285 | 11865 ft | 364 kts | 323° |
| 2026-05-04 19:32 | 45.43515 | 11.21286 | 12508 ft | 368 kts | 326° |
| 2026-05-04 19:32 | 45.45731 | 11.19338 | 13138 ft | 372 kts | 327° |
| 2026-05-04 19:32 | 45.47935 | 11.17450 | 13757 ft | 376 kts | 327° |
| 2026-05-04 19:32 | 45.50220 | 11.15483 | 14344 ft | 380 kts | 327° |
| 2026-05-04 19:33 | 45.52451 | 11.13529 | 14955 ft | 382 kts | 326° |
| 2026-05-04 19:33 | 45.54705 | 11.11523 | 15596 ft | 383 kts | 326° |
| 2026-05-04 19:33 | 45.56962 | 11.09485 | 16244 ft | 384 kts | 326° |
| 2026-05-04 19:33 | 45.59216 | 11.07434 | 16890 ft | 385 kts | 326° |
| 2026-05-04 19:34 | 45.61564 | 11.05547 | 17502 ft | 389 kts | 335° |
| 2026-05-04 19:34 | 45.64144 | 11.04367 | 18132 ft | 393 kts | 347° |
| 2026-05-04 19:34 | 45.66869 | 11.03994 | 18665 ft | 397 kts | 359° |
| 2026-05-04 19:34 | 45.69625 | 11.04477 | 19142 ft | 402 kts | 12° |
| 2026-05-04 19:35 | 45.72346 | 11.05465 | 19626 ft | 404 kts | 13° |
| 2026-05-04 19:35 | 45.75116 | 11.06468 | 20093 ft | 407 kts | 13° |
| 2026-05-04 19:35 | 45.77874 | 11.07454 | 20557 ft | 410 kts | 13° |
| 2026-05-04 19:35 | 45.80616 | 11.08431 | 21014 ft | 412 kts | 13° |
| 2026-05-04 19:36 | 45.83408 | 11.09426 | 21446 ft | 415 kts | 13° |
| 2026-05-04 19:36 | 45.86225 | 11.10430 | 21888 ft | 418 kts | 13° |
| 2026-05-04 19:36 | 45.89058 | 11.11440 | 22351 ft | 421 kts | 13° |
| 2026-05-04 19:36 | 45.91904 | 11.12454 | 22767 ft | 423 kts | 13° |
| 2026-05-04 19:37 | 45.94776 | 11.13470 | 23207 ft | 426 kts | 12° |
| 2026-05-04 19:37 | 45.97725 | 11.13925 | 23609 ft | 428 kts | 357° |
| 2026-05-04 19:37 | 46.00664 | 11.13353 | 23980 ft | 428 kts | 343° |
| 2026-05-04 19:37 | 46.03429 | 11.11784 | 24337 ft | 427 kts | 329° |
| 2026-05-04 19:38 | 46.05858 | 11.09326 | 24672 ft | 427 kts | 315° |
| 2026-05-04 19:38 | 46.07805 | 11.06120 | 25002 ft | 426 kts | 301° |
| 2026-05-04 19:38 | 46.09319 | 11.02447 | 25337 ft | 427 kts | 297° |
| 2026-05-04 19:38 | 46.10804 | 10.98723 | 25704 ft | 429 kts | 297° |
| 2026-05-04 19:39 | 46.12291 | 10.94986 | 26051 ft | 432 kts | 297° |
| 2026-05-04 19:39 | 46.13790 | 10.91219 | 26388 ft | 434 kts | 297° |
| 2026-05-04 19:39 | 46.15297 | 10.87428 | 26727 ft | 436 kts | 297° |
| 2026-05-04 19:39 | 46.16810 | 10.83623 | 27061 ft | 438 kts | 297° |
| 2026-05-04 19:40 | 46.18326 | 10.79806 | 27409 ft | 440 kts | 297° |
| 2026-05-04 19:40 | 46.19850 | 10.75966 | 27800 ft | 441 kts | 297° |
| 2026-05-04 19:40 | 46.21376 | 10.72113 | 28130 ft | 443 kts | 297° |
| 2026-05-04 19:40 | 46.22908 | 10.68236 | 28473 ft | 445 kts | 297° |
| 2026-05-04 19:41 | 46.24443 | 10.64341 | 28808 ft | 447 kts | 297° |
| 2026-05-04 19:41 | 46.25983 | 10.60433 | 29121 ft | 449 kts | 297° |
| 2026-05-04 19:41 | 46.27515 | 10.56540 | 29412 ft | 451 kts | 297° |
| 2026-05-04 19:41 | 46.29068 | 10.52583 | 29716 ft | 453 kts | 297° |
| 2026-05-04 19:42 | 46.30629 | 10.48596 | 30015 ft | 455 kts | 297° |
| 2026-05-04 19:42 | 46.32192 | 10.44602 | 30264 ft | 457 kts | 297° |
| 2026-05-04 19:42 | 46.33757 | 10.40600 | 30505 ft | 458 kts | 297° |
| 2026-05-04 19:42 | 46.35325 | 10.36598 | 30853 ft | 456 kts | 297° |
| 2026-05-04 19:43 | 46.36881 | 10.32619 | 31199 ft | 454 kts | 297° |
| 2026-05-04 19:43 | 46.38428 | 10.28645 | 31504 ft | 452 kts | 296° |
| 2026-05-04 19:43 | 46.39962 | 10.24690 | 31879 ft | 450 kts | 296° |
| 2026-05-04 19:43 | 46.41492 | 10.20740 | 32213 ft | 448 kts | 296° |
| 2026-05-04 19:44 | 46.43014 | 10.16806 | 32570 ft | 446 kts | 296° |
| 2026-05-04 19:44 | 46.44526 | 10.12894 | 32937 ft | 444 kts | 296° |
| 2026-05-04 19:44 | 46.46033 | 10.08993 | 33327 ft | 442 kts | 296° |
| 2026-05-04 19:44 | 46.47576 | 10.05153 | 33698 ft | 441 kts | 301° |
| 2026-05-04 19:45 | 46.49456 | 10.01622 | 34048 ft | 443 kts | 308° |
| 2026-05-04 19:45 | 46.51503 | 9.98284 | 34331 ft | 441 kts | 308° |
| 2026-05-04 19:45 | 46.53541 | 9.94954 | 34596 ft | 440 kts | 308° |
| 2026-05-04 19:45 | 46.55569 | 9.91632 | 34856 ft | 440 kts | 308° |
| 2026-05-04 19:46 | 46.57595 | 9.88304 | 35102 ft | 439 kts | 308° |
| 2026-05-04 19:46 | 46.59618 | 9.84972 | 35347 ft | 439 kts | 308° |
| 2026-05-04 19:46 | 46.61630 | 9.81646 | 35588 ft | 438 kts | 308° |
| 2026-05-04 19:46 | 46.63642 | 9.78309 | 35826 ft | 438 kts | 308° |
| 2026-05-04 19:47 | 46.65652 | 9.74976 | 36058 ft | 438 kts | 308° |
| 2026-05-04 19:47 | 46.69663 | 9.68320 | 36104 ft | 436 kts | 308° |
| 2026-05-04 19:48 | 46.73659 | 9.61683 | 36076 ft | 435 kts | 308° |
| 2026-05-04 19:48 | 46.77649 | 9.55026 | 36057 ft | 435 kts | 308° |
| 2026-05-04 19:49 | 46.81624 | 9.48361 | 36048 ft | 437 kts | 308° |
| 2026-05-04 19:49 | 46.85620 | 9.41659 | 36036 ft | 437 kts | 308° |
| 2026-05-04 19:50 | 46.89619 | 9.34955 | 36048 ft | 438 kts | 307° |
| 2026-05-04 19:50 | 46.93616 | 9.28225 | 36031 ft | 438 kts | 307° |
| 2026-05-04 19:51 | 46.97615 | 9.21468 | 36034 ft | 439 kts | 307° |
| 2026-05-04 19:51 | 47.01606 | 9.14707 | 36043 ft | 439 kts | 307° |
| 2026-05-04 19:52 | 47.05605 | 9.07929 | 36036 ft | 439 kts | 307° |
| 2026-05-04 19:52 | 47.09594 | 9.01139 | 36050 ft | 439 kts | 307° |
| 2026-05-04 19:53 | 47.13578 | 8.94336 | 36030 ft | 439 kts | 306° |
| 2026-05-04 19:53 | 47.16699 | 8.86762 | 36028 ft | 430 kts | 288° |
| 2026-05-04 19:54 | 47.18770 | 8.78588 | 36027 ft | 430 kts | 287° |
| 2026-05-04 19:54 | 47.20866 | 8.70363 | 36024 ft | 430 kts | 287° |
| 2026-05-04 19:55 | 47.22968 | 8.62130 | 36036 ft | 430 kts | 287° |
| 2026-05-04 19:55 | 47.25056 | 8.53881 | 36032 ft | 430 kts | 287° |
| 2026-05-04 19:56 | 47.27131 | 8.45633 | 36034 ft | 430 kts | 287° |
| 2026-05-04 19:56 | 47.29206 | 8.37383 | 36055 ft | 430 kts | 287° |
| 2026-05-04 19:57 | 47.31276 | 8.29122 | 36073 ft | 430 kts | 286° |
| 2026-05-04 19:57 | 47.33333 | 8.20839 | 36061 ft | 431 kts | 286° |
| 2026-05-04 19:58 | 47.35390 | 8.12545 | 36053 ft | 431 kts | 286° |
| 2026-05-04 19:58 | 47.37453 | 8.04217 | 36056 ft | 431 kts | 286° |
| 2026-05-04 19:59 | 47.39493 | 7.95906 | 36042 ft | 431 kts | 286° |
| 2026-05-04 19:59 | 47.41531 | 7.87580 | 36035 ft | 431 kts | 286° |
| 2026-05-04 20:00 | 47.43564 | 7.79244 | 36026 ft | 431 kts | 286° |
| 2026-05-04 20:00 | 47.45591 | 7.70907 | 36033 ft | 431 kts | 285° |
| 2026-05-04 20:01 | 47.47320 | 7.62523 | 36030 ft | 428 kts | 280° |
| 2026-05-04 20:01 | 47.48763 | 7.53923 | 36027 ft | 428 kts | 280° |
| 2026-05-04 20:02 | 47.50199 | 7.45371 | 36045 ft | 428 kts | 280° |
| 2026-05-04 20:02 | 47.51619 | 7.36852 | 36041 ft | 428 kts | 280° |
| 2026-05-04 20:03 | 47.53036 | 7.28313 | 36036 ft | 427 kts | 279° |
| 2026-05-04 20:03 | 47.54434 | 7.19768 | 36034 ft | 427 kts | 279° |
| 2026-05-04 20:04 | 47.55828 | 7.11223 | 36052 ft | 427 kts | 279° |
| 2026-05-04 20:04 | 47.56988 | 7.04107 | 36044 ft | 427 kts | 279° |
| 2026-05-04 20:05 | 47.58381 | 6.95537 | 36040 ft | 428 kts | 279° |
| 2026-05-04 20:05 | 47.59758 | 6.86971 | 36045 ft | 428 kts | 279° |
| 2026-05-04 20:06 | 47.61129 | 6.78385 | 36036 ft | 428 kts | 279° |
| 2026-05-04 20:06 | 47.62501 | 6.69800 | 36046 ft | 428 kts | 279° |
| 2026-05-04 20:07 | 47.63867 | 6.61196 | 36037 ft | 429 kts | 279° |
| 2026-05-04 20:07 | 47.65228 | 6.52591 | 36026 ft | 429 kts | 279° |
| 2026-05-04 20:08 | 47.66573 | 6.44026 | 36024 ft | 429 kts | 279° |
| 2026-05-04 20:08 | 47.67923 | 6.35408 | 36027 ft | 429 kts | 279° |
| 2026-05-04 20:09 | 47.69315 | 6.26787 | 36044 ft | 431 kts | 281° |
| 2026-05-04 20:09 | 47.71079 | 6.18269 | 36033 ft | 433 kts | 284° |
| 2026-05-04 20:10 | 47.73002 | 6.09793 | 36030 ft | 433 kts | 284° |
| 2026-05-04 20:10 | 47.74870 | 6.01281 | 36026 ft | 432 kts | 283° |
| 2026-05-04 20:11 | 47.76663 | 5.92750 | 36025 ft | 432 kts | 283° |
| 2026-05-04 20:11 | 47.78434 | 5.84212 | 36041 ft | 432 kts | 283° |
| 2026-05-04 20:12 | 47.80202 | 5.75664 | 36030 ft | 433 kts | 283° |
| 2026-05-04 20:12 | 47.81972 | 5.67106 | 36012 ft | 433 kts | 283° |
| 2026-05-04 20:13 | 47.83743 | 5.58549 | 36020 ft | 433 kts | 283° |
| 2026-05-04 20:13 | 47.86326 | 5.50434 | 36017 ft | 445 kts | 306° |
| 2026-05-04 20:14 | 47.90494 | 5.43657 | 36024 ft | 447 kts | 309° |
| 2026-05-04 20:14 | 47.94727 | 5.36838 | 36008 ft | 448 kts | 308° |
| 2026-05-04 20:15 | 47.98938 | 5.29991 | 36004 ft | 448 kts | 308° |
| 2026-05-04 20:15 | 48.03150 | 5.23118 | 36004 ft | 448 kts | 308° |
| 2026-05-04 20:16 | 48.07361 | 5.16235 | 35999 ft | 448 kts | 308° |
| 2026-05-04 20:16 | 48.11572 | 5.09342 | 36018 ft | 448 kts | 308° |
| 2026-05-04 20:17 | 48.15774 | 5.02447 | 36010 ft | 448 kts | 308° |
| 2026-05-04 20:17 | 48.19969 | 4.95523 | 35994 ft | 448 kts | 308° |
| 2026-05-04 20:18 | 48.24158 | 4.88595 | 35989 ft | 448 kts | 308° |
| 2026-05-04 20:18 | 48.28324 | 4.81702 | 35986 ft | 448 kts | 308° |
| 2026-05-04 20:19 | 48.32515 | 4.74759 | 35980 ft | 448 kts | 308° |
| 2026-05-04 20:19 | 48.36703 | 4.67814 | 35997 ft | 448 kts | 308° |
| 2026-05-04 20:20 | 48.40881 | 4.60858 | 35987 ft | 448 kts | 308° |
| 2026-05-04 20:20 | 48.45051 | 4.53885 | 35983 ft | 448 kts | 308° |
| 2026-05-04 20:21 | 48.49216 | 4.46902 | 35981 ft | 447 kts | 308° |
| 2026-05-04 20:21 | 48.55447 | 4.36402 | 35985 ft | 447 kts | 308° |
| 2026-05-04 20:22 | 48.59598 | 4.29389 | 36004 ft | 447 kts | 308° |
| 2026-05-04 20:22 | 48.63745 | 4.22364 | 35999 ft | 447 kts | 308° |
| 2026-05-04 20:23 | 48.67885 | 4.15349 | 35996 ft | 447 kts | 307° |
| 2026-05-04 20:23 | 48.71995 | 4.08354 | 35995 ft | 447 kts | 307° |
| 2026-05-04 20:24 | 48.76131 | 4.01302 | 35994 ft | 447 kts | 307° |
| 2026-05-04 20:24 | 48.80262 | 3.94242 | 35991 ft | 447 kts | 307° |
| 2026-05-04 20:25 | 48.84385 | 3.87169 | 35988 ft | 447 kts | 307° |
| 2026-05-04 20:25 | 48.88505 | 3.80087 | 35986 ft | 447 kts | 307° |
| 2026-05-04 20:26 | 48.92619 | 3.72983 | 35980 ft | 447 kts | 307° |
| 2026-05-04 20:26 | 48.96725 | 3.65876 | 35980 ft | 447 kts | 307° |
| 2026-05-04 20:27 | 49.00832 | 3.58755 | 35981 ft | 448 kts | 307° |
| 2026-05-04 20:27 | 49.04941 | 3.51603 | 36004 ft | 447 kts | 307° |
| 2026-05-04 20:28 | 49.09034 | 3.44467 | 35991 ft | 447 kts | 307° |
| 2026-05-04 20:28 | 49.13125 | 3.37326 | 35986 ft | 446 kts | 307° |
| 2026-05-04 20:29 | 49.17202 | 3.30179 | 35983 ft | 446 kts | 307° |
| 2026-05-04 20:29 | 49.21269 | 3.23035 | 35982 ft | 446 kts | 307° |
| 2026-05-04 20:30 | 49.25337 | 3.15871 | 35976 ft | 445 kts | 306° |
| 2026-05-04 20:30 | 49.29382 | 3.08703 | 35991 ft | 445 kts | 307° |
| 2026-05-04 20:31 | 49.33398 | 3.01569 | 35982 ft | 444 kts | 307° |
| 2026-05-04 20:31 | 49.37434 | 2.94394 | 35979 ft | 444 kts | 306° |
| 2026-05-04 20:32 | 49.41460 | 2.87216 | 35976 ft | 444 kts | 306° |
| 2026-05-04 20:32 | 49.45486 | 2.80026 | 35973 ft | 443 kts | 306° |
| 2026-05-04 20:33 | 49.49499 | 2.72838 | 35983 ft | 443 kts | 306° |
| 2026-05-04 20:33 | 49.53505 | 2.65634 | 35996 ft | 443 kts | 307° |
| 2026-05-04 20:34 | 49.57510 | 2.58407 | 35982 ft | 443 kts | 307° |
| 2026-05-04 20:34 | 49.61514 | 2.51176 | 35983 ft | 443 kts | 307° |
| 2026-05-04 20:35 | 49.65512 | 2.43928 | 35981 ft | 443 kts | 307° |
| 2026-05-04 20:35 | 49.69504 | 2.36673 | 35981 ft | 443 kts | 307° |
| 2026-05-04 20:36 | 49.73497 | 2.29402 | 35996 ft | 443 kts | 307° |
| 2026-05-04 20:36 | 49.77487 | 2.22120 | 36001 ft | 444 kts | 307° |
| 2026-05-04 20:37 | 49.81477 | 2.14824 | 35994 ft | 444 kts | 307° |
| 2026-05-04 20:37 | 49.85462 | 2.07507 | 35990 ft | 445 kts | 307° |
| 2026-05-04 20:38 | 49.89420 | 2.00206 | 35990 ft | 445 kts | 307° |
| 2026-05-04 20:38 | 49.93403 | 1.92842 | 35996 ft | 445 kts | 307° |
| 2026-05-04 20:39 | 49.97388 | 1.85456 | 35981 ft | 447 kts | 307° |
| 2026-05-04 20:39 | 50.01382 | 1.78026 | 35982 ft | 449 kts | 307° |
| 2026-05-04 20:40 | 50.05389 | 1.70549 | 35982 ft | 451 kts | 307° |
| 2026-05-04 20:40 | 50.09842 | 1.63619 | 35980 ft | 455 kts | 316° |
| 2026-05-04 20:41 | 50.14635 | 1.57154 | 35995 ft | 456 kts | 316° |
| 2026-05-04 20:41 | 50.17032 | 1.53911 | 35381 ft | 459 kts | 316° |
| 2026-05-04 20:41 | 50.19467 | 1.50600 | 34380 ft | 466 kts | 315° |
| 2026-05-04 20:42 | 50.21918 | 1.47255 | 33419 ft | 469 kts | 315° |
| 2026-05-04 20:42 | 50.24074 | 1.44305 | 32546 ft | 470 kts | 315° |
| 2026-05-04 20:42 | 50.26417 | 1.41100 | 31572 ft | 473 kts | 316° |
| 2026-05-04 20:42 | 50.28650 | 1.38045 | 30799 ft | 472 kts | 316° |
| 2026-05-04 20:43 | 50.30927 | 1.34929 | 30036 ft | 470 kts | 316° |
| 2026-05-04 20:43 | 50.33186 | 1.31833 | 29225 ft | 467 kts | 316° |
| 2026-05-04 20:43 | 50.35445 | 1.28730 | 28500 ft | 463 kts | 316° |
| 2026-05-04 20:43 | 50.37603 | 1.25760 | 27836 ft | 459 kts | 316° |
| 2026-05-04 20:44 | 50.39962 | 1.22505 | 27145 ft | 455 kts | 316° |
| 2026-05-04 20:44 | 50.42327 | 1.19241 | 26351 ft | 448 kts | 316° |
| 2026-05-04 20:44 | 50.44652 | 1.16033 | 25402 ft | 443 kts | 317° |
| 2026-05-04 20:44 | 50.46920 | 1.12901 | 24498 ft | 439 kts | 316° |
| 2026-05-04 20:45 | 50.49196 | 1.09748 | 23579 ft | 433 kts | 317° |
| 2026-05-04 20:45 | 50.51429 | 1.06621 | 22423 ft | 427 kts | 314° |
| 2026-05-04 20:45 | 50.53459 | 1.03250 | 21345 ft | 421 kts | 311° |
| 2026-05-04 20:45 | 50.55445 | 0.99894 | 20285 ft | 418 kts | 312° |
| 2026-05-04 20:46 | 50.57422 | 0.96561 | 19301 ft | 413 kts | 313° |
| 2026-05-04 20:46 | 50.59369 | 0.93281 | 18458 ft | 406 kts | 313° |
| 2026-05-04 20:46 | 50.61278 | 0.90068 | 17726 ft | 398 kts | 314° |
| 2026-05-04 20:46 | 50.63152 | 0.86907 | 17200 ft | 390 kts | 314° |
| 2026-05-04 20:47 | 50.64982 | 0.83811 | 16693 ft | 383 kts | 313° |
| 2026-05-04 20:47 | 50.66779 | 0.80761 | 16196 ft | 375 kts | 313° |
| 2026-05-04 20:47 | 50.68511 | 0.77732 | 15540 ft | 372 kts | 311° |
| 2026-05-04 20:47 | 50.70187 | 0.74578 | 14661 ft | 377 kts | 309° |
| 2026-05-04 20:48 | 50.71828 | 0.71334 | 13865 ft | 379 kts | 309° |
| 2026-05-04 20:48 | 50.73435 | 0.68092 | 13390 ft | 370 kts | 308° |
| 2026-05-04 20:48 | 50.74982 | 0.64964 | 13219 ft | 352 kts | 309° |
| 2026-05-04 20:48 | 50.76464 | 0.61993 | 13093 ft | 336 kts | 309° |
| 2026-05-04 20:49 | 50.77409 | 0.60112 | 13004 ft | 326 kts | 309° |
| 2026-05-04 20:49 | 50.78792 | 0.57374 | 12843 ft | 312 kts | 309° |
| 2026-05-04 20:49 | 50.80136 | 0.54726 | 12536 ft | 306 kts | 309° |
| 2026-05-04 20:49 | 50.81464 | 0.52111 | 12120 ft | 303 kts | 309° |
| 2026-05-04 20:50 | 50.82763 | 0.49554 | 11914 ft | 294 kts | 309° |
| 2026-05-04 20:50 | 50.84033 | 0.47046 | 11595 ft | 290 kts | 309° |
| 2026-05-04 20:50 | 50.85290 | 0.44565 | 11227 ft | 289 kts | 309° |
| 2026-05-04 20:50 | 50.86541 | 0.42093 | 10865 ft | 287 kts | 309° |
| 2026-05-04 20:51 | 50.87785 | 0.39631 | 10512 ft | 285 kts | 309° |
| 2026-05-04 20:51 | 50.89015 | 0.37191 | 10194 ft | 282 kts | 309° |
| 2026-05-04 20:51 | 50.90234 | 0.34774 | 9833 ft | 280 kts | 308° |
| 2026-05-04 20:51 | 50.91440 | 0.32378 | 9526 ft | 275 kts | 309° |
| 2026-05-04 20:52 | 50.92613 | 0.30045 | 9323 ft | 267 kts | 308° |
| 2026-05-04 20:52 | 50.93768 | 0.27747 | 8928 ft | 267 kts | 309° |
| 2026-05-04 20:52 | 50.94921 | 0.25451 | 8480 ft | 266 kts | 308° |
| 2026-05-04 20:52 | 50.96057 | 0.23158 | 8015 ft | 264 kts | 308° |
| 2026-05-04 20:53 | 50.97178 | 0.20876 | 7499 ft | 261 kts | 308° |
| 2026-05-04 20:53 | 50.98289 | 0.18615 | 6991 ft | 258 kts | 309° |
| 2026-05-04 20:53 | 50.99388 | 0.16381 | 6493 ft | 255 kts | 309° |
| 2026-05-04 20:53 | 51.00478 | 0.14159 | 6126 ft | 254 kts | 308° |
| 2026-05-04 20:54 | 51.01363 | 0.11747 | 5774 ft | 253 kts | 293° |
| 2026-05-04 20:54 | 51.01819 | 0.09057 | 5418 ft | 253 kts | 278° |
| 2026-05-04 20:54 | 51.01943 | 0.06301 | 5048 ft | 253 kts | 275° |
| 2026-05-04 20:54 | 51.02061 | 0.03480 | 4673 ft | 253 kts | 275° |
| 2026-05-04 20:55 | 51.02181 | 0.00738 | 4305 ft | 252 kts | 275° |
| 2026-05-04 20:55 | 51.02303 | -0.02033 | 3911 ft | 251 kts | 275° |
| 2026-05-04 20:55 | 51.02423 | -0.04795 | 3625 ft | 251 kts | 275° |
| 2026-05-04 20:55 | 51.02543 | -0.07574 | 3398 ft | 252 kts | 275° |
| 2026-05-04 20:56 | 51.02661 | -0.10325 | 3169 ft | 248 kts | 275° |
| 2026-05-04 20:56 | 51.02777 | -0.13041 | 3014 ft | 247 kts | 275° |
| 2026-05-04 20:56 | 51.02894 | -0.15793 | 3009 ft | 247 kts | 275° |
| 2026-05-04 20:56 | 51.03008 | -0.18491 | 3004 ft | 247 kts | 275° |
| 2026-05-04 20:57 | 51.03117 | -0.21149 | 3011 ft | 239 kts | 275° |
| 2026-05-04 20:57 | 51.03222 | -0.23774 | 3002 ft | 237 kts | 275° |
| 2026-05-04 20:57 | 51.03324 | -0.26344 | 3002 ft | 229 kts | 275° |
| 2026-05-04 20:57 | 51.03427 | -0.28866 | 3006 ft | 228 kts | 275° |
| 2026-05-04 20:58 | 51.03530 | -0.31379 | 3011 ft | 228 kts | 275° |
| 2026-05-04 20:58 | 51.03631 | -0.33897 | 3004 ft | 228 kts | 275° |
| 2026-05-04 20:58 | 51.03733 | -0.36412 | 3011 ft | 228 kts | 275° |
| 2026-05-04 20:58 | 51.03833 | -0.38932 | 3011 ft | 229 kts | 275° |
| 2026-05-04 20:59 | 51.03934 | -0.41462 | 3002 ft | 229 kts | 275° |
| 2026-05-04 20:59 | 51.04034 | -0.43985 | 3004 ft | 229 kts | 275° |
| 2026-05-04 20:59 | 51.04135 | -0.46508 | 3006 ft | 227 kts | 275° |
| 2026-05-04 20:59 | 51.04231 | -0.48960 | 3007 ft | 220 kts | 275° |
| 2026-05-04 21:00 | 51.04332 | -0.51373 | 2997 ft | 218 kts | 277° |
| 2026-05-04 21:00 | 51.04894 | -0.53518 | 3001 ft | 210 kts | 316° |
| 2026-05-04 21:00 | 51.06126 | -0.54660 | 3015 ft | 205 kts | 346° |
| 2026-05-04 21:00 | 51.07525 | -0.54851 | 3015 ft | 202 kts | 9° |
| 2026-05-04 21:01 | 51.08836 | -0.54139 | 3014 ft | 199 kts | 32° |
| 2026-05-04 21:01 | 51.09826 | -0.52708 | 3008 ft | 189 kts | 55° |
| 2026-05-04 21:01 | 51.10370 | -0.50837 | 3032 ft | 187 kts | 76° |
| 2026-05-04 21:01 | 51.10653 | -0.48827 | 3006 ft | 185 kts | 77° |
| 2026-05-04 21:02 | 51.10931 | -0.46856 | 3009 ft | 184 kts | 77° |
| 2026-05-04 21:02 | 51.11209 | -0.44882 | 3012 ft | 182 kts | 77° |
| 2026-05-04 21:02 | 51.11484 | -0.42923 | 2960 ft | 181 kts | 76° |
| 2026-05-04 21:02 | 51.11757 | -0.40979 | 2780 ft | 180 kts | 77° |
| 2026-05-04 21:03 | 51.12028 | -0.39046 | 2558 ft | 179 kts | 77° |
| 2026-05-04 21:03 | 51.12297 | -0.37125 | 2322 ft | 177 kts | 76° |
| 2026-05-04 21:03 | 51.12559 | -0.35250 | 2088 ft | 168 kts | 77° |
| 2026-05-04 21:03 | 51.12797 | -0.33543 | 1874 ft | 150 kts | 76° |
| 2026-05-04 21:04 | 51.13018 | -0.31964 | 1673 ft | 141 kts | 76° |
| 2026-05-04 21:04 | 51.13223 | -0.30489 | 1482 ft | 133 kts | 76° |
| 2026-05-04 21:04 | 51.13422 | -0.29061 | 1309 ft | 131 kts | 77° |
| 2026-05-04 21:04 | 51.13620 | -0.27646 | 1124 ft | 131 kts | 76° |
| 2026-05-04 21:05 | 51.13816 | -0.26233 | 945 ft | 131 kts | 77° |
| 2026-05-04 21:05 | 51.14012 | -0.24820 | 770 ft | 130 kts | 76° |
| 2026-05-04 21:05 | 51.14209 | -0.23397 | 596 ft | 131 kts | 77° |
| 2026-05-04 21:05 | 51.14411 | -0.21992 | 402 ft | 130 kts | 76° |
| 2026-05-04 21:06 | 51.14602 | -0.20583 | 247 ft | 131 kts | 76° |
| 2026-05-04 21:06 | 51.14785 | -0.19282 | 217 ft | 101 kts | 78° |
| 2026-05-04 21:06 | 51.14897 | -0.18460 | 211 ft | 51 kts | 77° |
| 2026-05-04 21:06 | 51.14958 | -0.18053 | 212 ft | 34 kts | 72° |
| 2026-05-04 21:07 | 51.15061 | -0.17807 | 211 ft | 13 kts | 47° |
| 2026-05-04 21:07 | 51.15125 | -0.17765 | 206 ft | 11 kts | 358° |
| 2026-05-04 21:07 | 51.15182 | -0.17780 | 205 ft | 1 kts | 349° |
| 2026-05-04 21:07 | 51.15201 | -0.17785 | 210 ft | 4 kts | 351° |
| 2026-05-04 21:08 | 51.15238 | -0.17787 | 209 ft | 6 kts | 17° |
| 2026-05-04 21:08 | 51.15268 | -0.17729 | 207 ft | 8 kts | 77° |
| 2026-05-04 21:08 | 51.15278 | -0.17626 | 210 ft | 11 kts | 79° |
| 2026-05-04 21:08 | 51.15294 | -0.17500 | 209 ft | 10 kts | 78° |
| 2026-05-04 21:09 | 51.15314 | -0.17395 | 207 ft | 9 kts | 53° |
| 2026-05-04 21:09 | 51.15364 | -0.17313 | 212 ft | 12 kts | 64° |
| 2026-05-04 21:09 | 51.15388 | -0.17206 | 210 ft | 9 kts | 71° |
| 2026-05-04 21:09 | 51.15408 | -0.17118 | 211 ft | 8 kts | 70° |
| 2026-05-04 21:10 | 51.15448 | -0.16836 | 213 ft | 9 kts | 77° |
| 2026-05-04 21:10 | 51.15447 | -0.16727 | 209 ft | 11 kts | 96° |
| 2026-05-04 21:11 | 51.15450 | -0.16665 | 213 ft | 1 kts | 79° |
| 2026-05-04 21:11 | 51.15456 | -0.16652 | 210 ft | 1 kts | 46° |
| 2026-05-04 21:11 | 51.15475 | -0.16646 | 214 ft | 4 kts | 2° |
| 2026-05-04 21:11 | 51.15498 | -0.16652 | 209 ft | 3 kts | 349° |
| 2026-05-04 21:12 | 51.15516 | -0.16658 | 212 ft | 2 kts | 348° |
| 2026-05-04 21:12 | 51.15521 | -0.16660 | 205 ft | 0 kts | 347° |
| 2026-05-04 21:14 | 51.15526 | -0.16661 | 206 ft | 0 kts | 348° |